createdAt,value
2018-07-30T00:01:08.253Z,8.90
2018-07-30T00:03:42.984Z,7.83
2018-07-30T00:06:17.790Z,8.77
2018-07-30T00:08:52.759Z,8.90
2018-07-30T00:11:27.538Z,8.63
2018-07-30T00:14:02.404Z,8.90
2018-07-30T00:16:37.146Z,8.63
2018-07-30T00:19:12.676Z,8.40
2018-07-30T00:21:47.621Z,9.53
2018-07-30T00:24:22.368Z,8.03
2018-07-30T00:26:57.086Z,8.17
2018-07-30T00:29:32.025Z,8.60
2018-07-30T00:32:06.721Z,8.17
2018-07-30T00:34:41.384Z,8.23
2018-07-30T00:37:16.281Z,8.20
2018-07-30T00:39:51.080Z,8.87
2018-07-30T00:42:26.602Z,8.50
2018-07-30T00:45:01.465Z,9.70
2018-07-30T00:47:36.242Z,10.13
2018-07-30T00:50:11.279Z,9.30
2018-07-30T00:52:46.015Z,9.60
2018-07-30T00:55:20.866Z,9.23
2018-07-30T00:57:55.787Z,8.90
2018-07-30T01:00:30.762Z,8.87
2018-07-30T01:03:05.808Z,9.13
2018-07-30T01:05:40.796Z,8.30
2018-07-30T01:08:16.261Z,8.00
2018-07-30T01:10:51.073Z,8.50
2018-07-30T01:13:25.645Z,8.90
2018-07-30T01:16:00.471Z,8.97
2018-07-30T01:18:35.150Z,8.60
2018-07-30T01:21:10.348Z,9.17
2018-07-30T01:23:45.119Z,8.57
2018-07-30T01:26:24.962Z,8.87
2018-07-30T01:29:00.581Z,9.77
2018-07-30T01:31:35.414Z,9.10
2018-07-30T01:34:10.259Z,10.77
2018-07-30T01:36:45.181Z,10.00
2018-07-30T01:39:19.833Z,9.77
2018-07-30T01:41:54.442Z,10.07
2018-07-30T01:44:29.017Z,10.37
2018-07-30T01:47:04.558Z,9.70
2018-07-30T01:49:39.178Z,10.37
2018-07-30T01:52:13.783Z,9.23
2018-07-30T01:54:48.774Z,9.87
2018-07-30T01:57:23.889Z,8.73
2018-07-30T01:59:58.912Z,10.13
2018-07-30T02:02:37.877Z,9.13
2018-07-30T02:05:12.628Z,10.10
2018-07-30T02:07:47.389Z,10.00
2018-07-30T02:10:22.178Z,10.00
2018-07-30T02:12:56.902Z,9.60
2018-07-30T02:15:31.879Z,10.27
2018-07-30T02:18:06.565Z,10.70
2018-07-30T02:20:41.552Z,10.40
2018-07-30T02:23:16.221Z,9.50
2018-07-30T02:25:50.965Z,9.57
2018-07-30T02:28:25.820Z,9.50
2018-07-30T02:31:00.447Z,9.30
2018-07-30T02:33:35.093Z,10.40
2018-07-30T02:36:09.779Z,8.83
2018-07-30T02:38:44.622Z,9.57
2018-07-30T02:41:19.558Z,9.07
2018-07-30T02:43:54.300Z,9.93
2018-07-30T02:46:29.020Z,9.60
2018-07-30T02:49:04.575Z,8.73
2018-07-30T02:51:39.402Z,9.27
2018-07-30T02:54:14.624Z,9.33
2018-07-30T02:56:49.574Z,8.67
2018-07-30T02:59:24.501Z,9.33
2018-07-30T03:01:59.336Z,9.70
2018-07-30T03:04:34.031Z,9.97
2018-07-30T03:07:08.902Z,9.13
2018-07-30T03:09:43.721Z,9.20
2018-07-30T03:12:18.476Z,9.93
2018-07-30T03:14:53.327Z,11.50
2018-07-30T03:17:28.145Z,11.57
2018-07-30T03:20:02.895Z,9.70
2018-07-30T03:22:37.755Z,11.67
2018-07-30T03:25:12.531Z,11.00
2018-07-30T03:27:47.510Z,9.63
2018-07-30T03:30:22.617Z,10.57
2018-07-30T03:32:57.771Z,10.10
2018-07-30T03:35:32.808Z,10.20
2018-07-30T03:38:07.637Z,9.67
2018-07-30T03:40:42.246Z,9.33
2018-07-30T03:43:17.108Z,9.07
2018-07-30T03:45:51.965Z,10.03
2018-07-30T03:48:27.184Z,9.30
2018-07-30T03:51:01.925Z,9.80
2018-07-30T03:53:36.903Z,9.97
2018-07-30T03:56:11.746Z,9.43
2018-07-30T03:58:46.794Z,10.93
2018-07-30T04:01:22.734Z,9.27
2018-07-30T04:03:57.661Z,9.80
2018-07-30T04:06:32.592Z,8.73
2018-07-30T04:09:07.950Z,9.07
2018-07-30T04:11:42.492Z,9.80
2018-07-30T04:14:17.996Z,10.37
2018-07-30T04:16:52.909Z,9.53
2018-07-30T04:19:28.186Z,8.97
2018-07-30T04:22:02.761Z,10.03
2018-07-30T04:24:37.897Z,9.93
2018-07-30T04:27:13.246Z,8.77
2018-07-30T04:29:48.372Z,10.10
2018-07-30T04:32:23.246Z,10.30
2018-07-30T04:34:58.146Z,10.73
2018-07-30T04:37:33.018Z,10.67
2018-07-30T04:40:07.913Z,11.03
2018-07-30T04:42:42.642Z,10.13
2018-07-30T04:45:17.749Z,9.90
2018-07-30T04:47:52.552Z,10.40
2018-07-30T04:50:27.268Z,9.80
2018-07-30T04:53:02.185Z,10.20
2018-07-30T04:55:36.888Z,10.27
2018-07-30T04:58:11.537Z,10.70
2018-07-30T05:00:46.357Z,11.07
2018-07-30T05:03:21.038Z,10.60
2018-07-30T05:05:55.939Z,9.70
2018-07-30T05:08:30.541Z,9.80
2018-07-30T05:11:05.270Z,11.03
2018-07-30T05:13:40.413Z,10.23
2018-07-30T05:16:15.156Z,9.40
2018-07-30T05:18:49.938Z,10.23
2018-07-30T05:21:24.874Z,8.87
2018-07-30T05:23:59.581Z,9.40
2018-07-30T05:26:34.433Z,9.60
2018-07-30T05:29:09.204Z,9.23
2018-07-30T05:31:44.111Z,9.67
2018-07-30T05:34:19.023Z,9.37
2018-07-30T05:36:53.857Z,9.33
2018-07-30T05:39:30.410Z,10.03
2018-07-30T05:42:05.274Z,9.47
2018-07-30T05:44:39.884Z,8.83
2018-07-30T05:47:14.717Z,8.30
2018-07-30T05:49:49.388Z,9.83
2018-07-30T05:52:24.215Z,9.60
2018-07-30T05:54:58.953Z,9.10
2018-07-30T05:57:33.787Z,8.60
2018-07-30T06:00:09.225Z,8.33
2018-07-30T06:02:43.885Z,10.87
2018-07-30T06:05:18.757Z,8.33
2018-07-30T06:07:53.667Z,8.90
2018-07-30T06:10:28.290Z,8.40
2018-07-30T06:13:02.787Z,8.13
2018-07-30T06:15:37.503Z,8.43
2018-07-30T06:18:13.016Z,8.20
2018-07-30T06:20:47.795Z,8.33
2018-07-30T06:23:23.332Z,9.10
2018-07-30T06:25:58.856Z,9.08
2018-07-30T06:28:34.153Z,8.00
2018-07-30T06:31:09.678Z,8.73
2018-07-30T06:33:45.297Z,8.50
2018-07-30T06:36:20.548Z,8.80
2018-07-30T06:38:55.773Z,9.20
2018-07-30T06:41:31.207Z,8.48
2018-07-30T06:44:07.296Z,8.73
2018-07-30T06:46:43.564Z,9.40
2018-07-30T06:49:19.130Z,8.20
2018-07-30T06:51:54.647Z,8.58
2018-07-30T06:54:29.841Z,8.85
2018-07-30T06:57:05.294Z,8.93
2018-07-30T06:59:40.578Z,8.20
2018-07-30T07:02:16.171Z,8.25
2018-07-30T07:04:51.398Z,8.65
2018-07-30T07:07:26.695Z,8.03
2018-07-30T07:10:02.205Z,8.43
2018-07-30T07:12:37.870Z,8.43
2018-07-30T07:15:14.321Z,8.43
2018-07-30T07:17:49.527Z,8.13
2018-07-30T07:20:24.732Z,8.63
2018-07-30T07:23:00.147Z,7.70
2018-07-30T07:25:35.682Z,7.90
2018-07-30T07:28:11.007Z,8.30
2018-07-30T07:30:46.824Z,8.20
2018-07-30T07:33:22.238Z,7.72
2018-07-30T07:35:57.667Z,7.97
2018-07-30T07:38:32.965Z,7.45
2018-07-30T07:41:09.229Z,7.58
2018-07-30T07:43:44.721Z,7.53
2018-07-30T07:46:20.019Z,7.10
2018-07-30T07:48:55.455Z,7.85
2018-07-30T07:51:30.854Z,7.17
2018-07-30T07:54:06.464Z,7.30
2018-07-30T07:56:41.891Z,7.12
2018-07-30T07:59:17.276Z,7.90
2018-07-30T08:01:52.581Z,7.03
2018-07-30T08:04:28.046Z,6.28
2018-07-30T08:07:03.253Z,7.12
2018-07-30T08:09:38.968Z,7.25
2018-07-30T08:12:14.571Z,7.40
2018-07-30T08:14:50.085Z,7.62
2018-07-30T08:17:25.578Z,6.53
2018-07-30T08:20:01.405Z,6.65
2018-07-30T08:22:36.936Z,7.60
2018-07-30T08:25:13.382Z,7.20
2018-07-30T08:27:48.547Z,6.55
2018-07-30T08:30:23.961Z,6.05
2018-07-30T08:32:59.367Z,6.40
2018-07-30T08:35:34.951Z,6.30
2018-07-30T08:38:10.801Z,6.03
2018-07-30T08:40:46.629Z,6.03
2018-07-30T08:43:21.901Z,6.05
2018-07-30T08:45:57.142Z,5.87
2018-07-30T08:48:32.683Z,5.92
2018-07-30T08:51:08.247Z,5.58
2018-07-30T08:53:43.416Z,6.45
2018-07-30T08:56:19.137Z,5.30
2018-07-30T08:58:54.556Z,5.15
2018-07-30T09:01:29.819Z,5.50
2018-07-30T09:04:05.469Z,5.58
2018-07-30T09:06:40.675Z,5.80
2018-07-30T09:09:16.026Z,5.95
2018-07-30T09:11:51.254Z,6.20
2018-07-30T09:14:26.764Z,5.40
2018-07-30T09:17:02.246Z,5.92
2018-07-30T09:19:37.433Z,5.67
2018-07-30T09:22:13.021Z,6.05
2018-07-30T09:24:48.247Z,5.90
2018-07-30T09:27:24.320Z,5.97
2018-07-30T09:30:00.380Z,5.50
2018-07-30T09:32:35.777Z,5.92
2018-07-30T09:35:11.598Z,6.27
2018-07-30T09:37:46.561Z,6.30
2018-07-30T09:40:21.537Z,5.97
2018-07-30T09:42:56.924Z,5.67
2018-07-30T09:45:32.013Z,5.10
2018-07-30T09:48:07.188Z,5.13
2018-07-30T09:50:42.264Z,5.87
2018-07-30T09:53:17.631Z,5.10
2018-07-30T09:55:52.657Z,4.90
2018-07-30T09:58:27.631Z,4.73
2018-07-30T10:01:08.137Z,5.30
2018-07-30T10:03:43.296Z,5.17
2018-07-30T10:06:18.875Z,5.70
2018-07-30T10:08:54.581Z,5.70
2018-07-30T10:11:29.788Z,5.17
2018-07-30T10:14:04.884Z,5.37
2018-07-30T10:16:39.874Z,5.30
2018-07-30T10:19:14.850Z,5.30
2018-07-30T10:21:49.928Z,5.57
2018-07-30T10:24:24.857Z,4.83
2018-07-30T10:26:59.787Z,4.93
2018-07-30T10:29:34.926Z,5.40
2018-07-30T10:32:09.911Z,5.40
2018-07-30T10:34:44.858Z,5.40
2018-07-30T10:37:20.297Z,5.10
2018-07-30T10:39:55.271Z,5.50
2018-07-30T10:42:30.415Z,5.17
2018-07-30T10:45:05.956Z,5.97
2018-07-30T10:47:40.934Z,5.07
2018-07-30T10:50:15.953Z,5.03
2018-07-30T10:52:50.981Z,5.07
2018-07-30T10:55:25.953Z,5.23
2018-07-30T10:58:01.001Z,5.10
2018-07-30T11:00:36.117Z,5.20
2018-07-30T11:03:11.247Z,5.60
2018-07-30T11:05:46.174Z,5.23
2018-07-30T11:08:21.354Z,4.93
2018-07-30T11:10:56.446Z,5.47
2018-07-30T11:13:31.395Z,5.90
2018-07-30T11:16:06.860Z,4.83
2018-07-30T11:18:41.843Z,5.10
2018-07-30T11:21:17.234Z,5.23
2018-07-30T11:23:52.413Z,5.07
2018-07-30T11:26:27.452Z,5.47
2018-07-30T11:29:02.512Z,4.83
2018-07-30T11:31:37.528Z,4.70
2018-07-30T11:34:12.621Z,5.07
2018-07-30T11:36:48.203Z,5.23
2018-07-30T11:39:23.154Z,5.20
2018-07-30T11:41:58.237Z,5.50
2018-07-30T11:44:33.934Z,5.33
2018-07-30T11:47:08.881Z,5.33
2018-07-30T11:49:43.955Z,5.10
2018-07-30T11:52:19.027Z,5.17
2018-07-30T11:54:54.160Z,5.33
2018-07-30T11:57:29.133Z,5.17
2018-07-30T12:00:04.344Z,5.30
2018-07-30T12:02:39.409Z,5.43
2018-07-30T12:05:14.449Z,5.00
2018-07-30T12:07:49.981Z,5.03
2018-07-30T12:10:24.922Z,5.70
2018-07-30T12:12:59.855Z,5.37
2018-07-30T12:15:34.850Z,5.57
2018-07-30T12:18:09.925Z,5.83
2018-07-30T12:20:44.950Z,5.23
2018-07-30T12:23:20.149Z,5.17
2018-07-30T12:25:55.207Z,5.20
2018-07-30T12:28:30.968Z,5.83
2018-07-30T12:31:06.314Z,5.40
2018-07-30T12:33:41.315Z,5.60
2018-07-30T12:36:16.359Z,5.57
2018-07-30T12:38:51.802Z,5.40
2018-07-30T12:41:27.124Z,5.10
2018-07-30T12:44:02.485Z,5.00
2018-07-30T12:46:37.645Z,5.10
2018-07-30T12:49:13.564Z,5.27
2018-07-30T12:51:48.213Z,5.40
2018-07-30T12:54:23.142Z,5.37
2018-07-30T12:56:58.323Z,5.50
2018-07-30T12:59:33.978Z,5.53
2018-07-30T13:02:09.755Z,5.53
2018-07-30T13:04:46.166Z,5.20
2018-07-30T13:07:21.155Z,5.23
2018-07-30T13:09:56.209Z,4.93
2018-07-30T13:12:31.454Z,4.83
2018-07-30T13:15:06.595Z,5.23
2018-07-30T13:17:41.820Z,5.37
2018-07-30T13:20:16.938Z,5.43
2018-07-30T13:22:52.122Z,5.57
2018-07-30T13:25:27.526Z,5.17
2018-07-30T13:28:02.681Z,5.50
2018-07-30T13:30:37.768Z,5.70
2018-07-30T13:33:12.840Z,5.20
2018-07-30T13:35:47.908Z,5.20
2018-07-30T13:38:22.968Z,5.53
2018-07-30T13:40:59.321Z,5.17
2018-07-30T13:43:34.458Z,5.27
2018-07-30T13:46:10.202Z,5.20
2018-07-30T13:48:45.218Z,6.00
2018-07-30T13:51:20.938Z,5.50
2018-07-30T13:53:56.075Z,5.57
2018-07-30T13:56:31.133Z,5.37
2018-07-30T13:59:06.377Z,5.50
2018-07-30T14:01:41.517Z,5.40
2018-07-30T14:04:16.728Z,5.00
2018-07-30T14:06:52.796Z,5.23
2018-07-30T14:09:28.030Z,5.30
2018-07-30T14:12:03.169Z,5.63
2018-07-30T14:14:38.601Z,5.23
2018-07-30T14:17:13.641Z,5.60
2018-07-30T14:19:48.732Z,5.40
2018-07-30T14:22:24.064Z,5.60
2018-07-30T14:24:59.152Z,5.53
2018-07-30T14:27:34.382Z,5.30
2018-07-30T14:30:10.045Z,5.37
2018-07-30T14:32:45.005Z,5.30
2018-07-30T14:35:20.198Z,5.63
2018-07-30T14:37:55.593Z,5.70
2018-07-30T14:40:30.694Z,5.60
2018-07-30T14:43:05.826Z,5.40
2018-07-30T14:45:41.759Z,6.03
2018-07-30T14:48:16.798Z,5.33
2018-07-30T14:50:51.833Z,5.63
2018-07-30T14:53:26.911Z,5.80
2018-07-30T14:56:02.005Z,5.40
2018-07-30T14:58:38.216Z,5.67
2018-07-30T15:01:13.122Z,5.13
2018-07-30T15:03:48.654Z,5.23
2018-07-30T15:06:23.558Z,5.70
2018-07-30T15:08:58.340Z,5.03
2018-07-30T15:11:33.369Z,5.13
2018-07-30T15:14:08.878Z,5.57
2018-07-30T15:16:44.213Z,5.80
2018-07-30T15:19:19.416Z,5.37
2018-07-30T15:21:54.649Z,5.23
2018-07-30T15:24:29.721Z,4.90
2018-07-30T15:27:05.080Z,5.10
2018-07-30T15:29:40.101Z,4.60
2018-07-30T15:32:15.284Z,5.00
2018-07-30T15:34:50.503Z,4.77
2018-07-30T15:37:26.234Z,4.90
2018-07-30T15:40:01.474Z,5.23
2018-07-30T15:42:36.402Z,5.27
2018-07-30T15:45:11.437Z,4.87
2018-07-30T15:47:47.129Z,5.07
2018-07-30T15:50:22.197Z,5.63
2018-07-30T15:52:57.183Z,5.77
2018-07-30T15:55:32.386Z,5.30
2018-07-30T15:58:07.350Z,5.60
2018-07-30T16:00:42.474Z,5.50
2018-07-30T16:03:17.949Z,5.83
2018-07-30T16:05:53.084Z,5.70
2018-07-30T16:08:28.374Z,6.20
2018-07-30T16:11:03.525Z,5.97
2018-07-30T16:13:38.805Z,5.90
2018-07-30T16:16:14.417Z,5.73
2018-07-30T16:18:49.867Z,6.17
2018-07-30T16:21:25.085Z,5.87
2018-07-30T16:24:00.089Z,6.40
2018-07-30T16:26:35.989Z,6.87
2018-07-30T16:29:11.109Z,5.77
2018-07-30T16:31:46.045Z,6.17
2018-07-30T16:34:21.088Z,6.47
2018-07-30T16:36:56.236Z,6.57
2018-07-30T16:39:31.545Z,6.20
2018-07-30T16:42:06.534Z,5.90
2018-07-30T16:44:41.562Z,5.87
2018-07-30T16:47:16.644Z,7.57
2018-07-30T16:49:52.106Z,8.00
2018-07-30T16:52:27.193Z,6.40
2018-07-30T16:55:02.384Z,8.47
2018-07-30T16:57:37.309Z,7.27
2018-07-30T17:00:13.519Z,6.77
2018-07-30T17:02:48.450Z,10.73
2018-07-30T17:05:23.483Z,8.63
2018-07-30T17:07:58.619Z,6.97
2018-07-30T17:10:33.715Z,5.80
2018-07-30T17:13:09.450Z,5.43
2018-07-30T17:15:44.706Z,5.50
2018-07-30T17:18:19.953Z,5.80
2018-07-30T17:20:55.639Z,5.33
2018-07-30T17:23:30.967Z,6.30
2018-07-30T17:26:05.784Z,5.77
2018-07-30T17:28:41.114Z,5.83
2018-07-30T17:31:16.865Z,5.80
2018-07-30T17:33:52.312Z,5.83
2018-07-30T17:36:27.339Z,5.47
2018-07-30T17:39:02.786Z,6.50
2018-07-30T17:41:38.046Z,5.87
2018-07-30T17:44:13.152Z,5.40
2018-07-30T17:46:48.272Z,5.60
2018-07-30T17:49:23.603Z,5.87
2018-07-30T17:51:59.093Z,6.20
2018-07-30T17:54:34.499Z,5.83
2018-07-30T17:57:10.292Z,6.00
2018-07-30T17:59:45.599Z,5.43
2018-07-30T18:02:21.274Z,5.87
2018-07-30T18:04:57.513Z,5.90
2018-07-30T18:07:33.395Z,5.77
2018-07-30T18:10:08.884Z,6.42
2018-07-30T18:12:44.244Z,5.00
2018-07-30T18:15:19.975Z,5.92
2018-07-30T18:17:55.245Z,6.17
2018-07-30T18:20:30.542Z,5.83
2018-07-30T18:23:05.787Z,6.30
2018-07-30T18:25:41.114Z,6.35
2018-07-30T18:28:17.198Z,5.75
2018-07-30T18:30:53.020Z,6.20
2018-07-30T18:33:28.315Z,6.10
2018-07-30T18:36:03.794Z,5.62
2018-07-30T18:38:39.197Z,6.45
2018-07-30T18:41:14.581Z,6.03
2018-07-30T18:43:49.860Z,5.50
2018-07-30T18:46:25.222Z,5.70
2018-07-30T18:49:01.245Z,6.30
2018-07-30T18:51:36.721Z,6.28
2018-07-30T18:54:12.726Z,8.00
2018-07-30T18:56:48.061Z,5.80
2018-07-30T18:59:23.705Z,6.17
2018-07-30T19:01:59.391Z,6.00
2018-07-30T19:04:34.717Z,6.12
2018-07-30T19:07:10.021Z,5.70
2018-07-30T19:09:45.393Z,6.15
2018-07-30T19:12:21.621Z,6.00
2018-07-30T19:14:56.931Z,6.12
2018-07-30T19:17:32.644Z,6.65
2018-07-30T19:20:08.791Z,6.60
2018-07-30T19:22:44.253Z,6.00
2018-07-30T19:25:19.785Z,6.20
2018-07-30T19:27:55.417Z,6.65
2018-07-30T19:30:30.753Z,6.17
2018-07-30T19:33:06.395Z,6.53
2018-07-30T19:35:41.829Z,5.92
2018-07-30T19:38:17.658Z,6.00
2018-07-30T19:40:53.359Z,5.92
2018-07-30T19:43:28.494Z,6.25
2018-07-30T19:46:04.380Z,6.15
2018-07-30T19:48:39.836Z,6.33
2018-07-30T19:51:15.307Z,5.97
2018-07-30T19:53:50.860Z,6.47
2018-07-30T19:56:26.562Z,6.30
2018-07-30T19:59:02.156Z,6.28
2018-07-30T20:01:37.725Z,6.22
2018-07-30T20:04:13.065Z,6.67
2018-07-30T20:06:48.523Z,6.85
2018-07-30T20:09:24.089Z,6.80
2018-07-30T20:11:59.447Z,6.50
2018-07-30T20:14:34.828Z,7.37
2018-07-30T20:17:10.634Z,7.22
2018-07-30T20:19:45.838Z,8.03
2018-07-30T20:22:21.164Z,6.80
2018-07-30T20:24:56.580Z,7.47
2018-07-30T20:27:32.061Z,6.60
2018-07-30T20:30:08.050Z,7.70
2018-07-30T20:32:43.710Z,7.22
2018-07-30T20:35:19.133Z,6.70
2018-07-30T20:37:54.658Z,7.03
2018-07-30T20:40:30.083Z,7.10
2018-07-30T20:43:05.735Z,7.50
2018-07-30T20:45:40.926Z,8.23
2018-07-30T20:48:16.871Z,7.47
2018-07-30T20:50:52.690Z,7.33
2018-07-30T20:53:28.001Z,7.80
2018-07-30T20:56:03.612Z,7.33
2018-07-30T20:58:39.023Z,7.78
2018-07-30T21:01:14.431Z,8.20
2018-07-30T21:03:49.966Z,8.15
2018-07-30T21:06:25.258Z,7.65
2018-07-30T21:09:00.566Z,7.20
2018-07-30T21:11:36.729Z,8.40
2018-07-30T21:14:12.242Z,7.33
2018-07-30T21:16:47.680Z,7.75
2018-07-30T21:19:23.309Z,7.85
2018-07-30T21:21:59.480Z,7.35
2018-07-30T21:24:35.100Z,7.65
2018-07-30T21:27:10.822Z,7.55
2018-07-30T21:29:46.382Z,7.65
2018-07-30T21:32:22.085Z,7.60
2018-07-30T21:34:57.686Z,7.33
2018-07-30T21:37:33.488Z,6.92
2018-07-30T21:40:08.772Z,7.55
2018-07-30T21:42:44.251Z,7.53
2018-07-30T21:45:19.592Z,6.83
2018-07-30T21:47:55.790Z,8.43
2018-07-30T21:50:31.381Z,6.87
2018-07-30T21:53:07.480Z,7.35
2018-07-30T21:55:42.734Z,8.13
2018-07-30T21:58:18.167Z,7.55
2018-07-30T22:00:55.606Z,7.25
2018-07-30T22:03:31.072Z,7.05
2018-07-30T22:06:06.422Z,7.58
2018-07-30T22:08:48.565Z,7.87
2018-07-30T22:11:24.256Z,8.03
2018-07-30T22:13:59.867Z,6.95
2018-07-30T22:16:35.358Z,6.90
2018-07-30T22:19:10.797Z,7.17
2018-07-30T22:21:46.041Z,7.12
2018-07-30T22:24:21.405Z,7.70
2018-07-30T22:26:56.908Z,7.80
2018-07-30T22:29:32.627Z,6.92
2018-07-30T22:32:08.264Z,7.55
2018-07-30T22:34:44.385Z,7.10
2018-07-30T22:37:20.631Z,7.47
2018-07-30T22:39:56.293Z,7.08
2018-07-30T22:42:31.544Z,6.92
2018-07-30T22:45:07.141Z,7.50
2018-07-30T22:47:42.705Z,6.80
2018-07-30T22:50:18.478Z,7.08
2018-07-30T22:52:53.644Z,7.30
2018-07-30T22:55:29.721Z,8.08
2018-07-30T22:58:05.890Z,7.35
2018-07-30T23:00:41.413Z,7.42
2018-07-30T23:03:17.272Z,7.28
2018-07-30T23:05:52.518Z,6.87
2018-07-30T23:08:28.161Z,8.05
2018-07-30T23:11:03.401Z,7.62
2018-07-30T23:13:38.784Z,6.95
2018-07-30T23:16:20.656Z,6.83
2018-07-30T23:18:56.146Z,6.83
2018-07-30T23:21:31.563Z,8.03
2018-07-30T23:24:07.257Z,8.23
2018-07-30T23:26:42.646Z,7.55
2018-07-30T23:29:18.023Z,6.90
2018-07-30T23:31:53.513Z,7.05
2018-07-30T23:34:28.905Z,7.75
2018-07-30T23:37:05.923Z,8.25
2018-07-30T23:39:41.528Z,7.12
2018-07-30T23:42:17.011Z,8.00
2018-07-30T23:44:52.366Z,7.35
2018-07-30T23:47:27.867Z,7.87
2018-07-30T23:50:03.700Z,7.47
2018-07-30T23:52:39.272Z,8.28
2018-07-30T23:55:14.786Z,8.05
2018-07-30T23:57:50.382Z,7.90
